Flight Track Log - Related Links

Times and Time Zones

All times are in EDT time to prevent confusion due to time zone crossing. See the CTL13 flight status page for this flight to view local times or setup timezone preferences in your user account.

Time Position Orientation Groundspeed Altitude Reporting Facility
EDT Latitude Longitude Course Direction KTS MPH feet Rate Location/Type
Tue 08:15:00 PM 39.8833 -86.3167 323° Northwest 140 161 1,900  Level Indianapolis TRACON
Tue 08:15:55 PM 39.9167 -86.3500 323° Northwest 159 183 2,000 365 Climbing Indianapolis TRACON
Tue 08:16:55 PM 39.9500 -86.3833 323° Northwest 143 165 2,600 550 Climbing Indianapolis TRACON
Tue 08:17:55 PM 39.9833 -86.4167 323° Northwest 138 159 3,100 480 Climbing Indianapolis TRACON
Tue 08:19:00 PM 40.0167 -86.4500 323° Northwest 145 167 3,600 417 Climbing Indianapolis TRACON
Tue 08:20:19 PM 40.0506 -86.5014 311° West 144 166 4,100 511 Climbing Chicago Center
Tue 08:21:21 PM 40.0822 -86.5353 321° Northwest 146 168 4,800 541 Climbing Chicago Center
Tue 08:22:21 PM 40.1111 -86.5672 320° Northwest 144 166 5,200 545 Climbing Indianapolis Center
Tue 08:23:22 PM 40.1386 -86.6025 316° Northwest 141 162 5,900 341 Climbing Indianapolis Center
Tue 08:24:24 PM 40.1672 -86.6417 314° West 143 165 5,900 56 Level Indianapolis Center
Tue 08:25:10 PM 40.1931 -86.6794 312° West 161 185 6,000 56 Climbing Chicago Center
Tue 08:26:11 PM 40.2331 -86.7228 320° Northwest 170 196 6,000  Level Chicago Center
Tue 08:27:11 PM 40.2650 -86.7656 314° West 174 200 6,000  Level Chicago Center
Tue 08:28:12 PM 40.3008 -86.8117 316° Northwest 173 199 6,000 -49 Level Chicago Center
Tue 08:29:13 PM 40.3389 -86.8550 319° Northwest 173 199 5,900  Descending Chicago Center
Tue 08:30:13 PM 40.3750 -86.8928 321° Northwest 174 200 6,000 50 Climbing Chicago Center
Tue 08:31:14 PM 40.4194 -86.9283 329° Northwest 177 204 6,000  Level Chicago Center
Tue 08:32:14 PM 40.4556 -86.9692 319° Northwest 176 203 6,000 -67 Level Chicago Center
Tue 08:32:44 PM 40.4722 -86.9900 316° Northwest 177 204 5,900  Descending Chicago Center
Tue 08:33:15 PM 40.4933 -87.0128 321° Northwest 175 201 6,000  Climbing Chicago Center
Tue 08:33:45 PM 40.5114 -87.0272 329° Northwest 175 201 5,900  Descending Chicago Center
Tue 08:34:15 PM 40.5361 -87.0403 338° Northwest 176 203 6,000 97 Climbing Chicago Center
Tue 08:34:47 PM 40.5569 -87.0522 336° Northwest 177 204 6,000 -64 Level Chicago Center
Tue 08:35:49 PM 40.6025 -87.0767 338° Northwest 177 204 5,900 -145 Descending Chicago Center
Tue 08:36:51 PM 40.6478 -87.1044 335° Northwest 178 205 5,700 -48 Descending Chicago Center
Tue 08:37:54 PM 40.6989 -87.1344 336° Northwest 170 196 5,800 48 Climbing Chicago Center
Tue 08:38:56 PM 40.7433 -87.1564 339° North 170 196 5,800  Level Chicago Center
Tue 08:39:58 PM 40.7883 -87.1797 339° North 175 201 5,800 48 Level Chicago Center
Tue 08:41:00 PM 40.8342 -87.2053 337° Northwest 178 205 5,900  Climbing Chicago Center
Tue 08:42:02 PM 40.8789 -87.2300 337° Northwest 177 204 5,800  Descending Chicago Center
Tue 08:43:04 PM 40.9339 -87.2589 338° Northwest 177 204 5,900  Climbing Chicago Center
Tue 08:44:06 PM 40.9806 -87.2808 340° North 178 205 5,800  Descending Chicago Center
Tue 08:45:08 PM 41.0286 -87.2989 344° North 179 206 5,900 48 Climbing Chicago Center
Tue 08:46:10 PM 41.0725 -87.3256 335° Northwest 175 201 5,900 -97 Level Chicago Center
Tue 08:47:12 PM 41.1175 -87.3514 337° Northwest 177 204 5,700 -435 Descending Chicago Center
Tue 08:48:14 PM 41.1750 -87.3883 334° Northwest 189 217 5,000 -532 Descending Chicago Center
Tue 08:49:16 PM 41.2222 -87.4144 337° Northwest 188 216 4,600 -532 Descending Chicago Center
Tue 08:50:18 PM 41.2700 -87.4411 337° Northwest 188 216 3,900 -290 Descending Chicago Center
Tue 08:51:20 PM 41.3142 -87.4650 338° Northwest 182 209 4,000 48 Climbing Chicago Center
Tue 08:52:22 PM 41.3561 -87.4872 338° Northwest 172 198 4,000  Level Chicago Center
Tue 08:53:24 PM 41.4064 -87.5161 337° Northwest 168 193 4,000 -97 Level Chicago Center
Tue 08:54:26 PM 41.4483 -87.5439 334° Northwest 168 193 3,800 -98 Descending Chicago Center
Tue 08:55:27 PM 41.4906 -87.5700 335° Northwest 169 194 3,800 -293 Level Chicago Center
Tue 08:56:29 PM 41.5289 -87.6114 321° Northwest 176 203 3,200 -435 Descending Chicago Center
Tue 08:57:31 PM 41.5592 -87.6633 308° West 179 206 2,900 -144 Descending Chicago Center
Tue 08:58:34 PM 41.5944 -87.7172 311° West 170 196 2,900  Level Chicago Center
Tue 08:59:35 PM 41.6097 -87.7714 291° West 168 193 2,900  Level Chicago Center
Tue 09:00:37 PM 41.6056 -87.8325 265° West 168 193 2,900  Level Chicago Center
Tue 09:01:39 PM 41.6119 -87.8919 278° West 172 198 2,900 -97 Level Chicago Center
Tue 09:02:41 PM 41.6425 -87.9242 322° Northwest 167 192 2,700 -145 Descending Chicago Center
Tue 09:03:43 PM 41.6803 -87.8831 39° Northeast 152 175 2,600 -194 Descending Chicago Center
Tue 09:04:45 PM 41.7100 -87.8458 43° Northeast 148 170 2,300 -439 Descending Chicago Center
Tue 09:05:46 PM 41.7419 -87.8069 42° Northeast 151 174 1,700 -683 Descending Chicago Center
Tue 09:06:48 PM 41.7708 -87.7700 44° Northeast 150 173 900 -774 Descending Chicago Center
Tue 09:08:00 PM 41.7833 -87.7500 31° Northeast  Level FlightAware Approximate
Tue 09:15:00 PM 41.7860 -87.7524 31° Northeast  Level Estimated

Login

Don't have an account? Register now (free) for customized features, flight alerts, and more!